sensor_id;sensor_type;location;lat;lon;timestamp;P1;durP1;ratioP1;P2;durP2;ratioP2
18206;SDS011;9229;52.354;20.886;2022-12-29T00:02:47;9.90;;;7.10;;
18206;SDS011;9229;52.354;20.886;2022-12-29T00:07:49;9.82;;;6.65;;
18206;SDS011;9229;52.354;20.886;2022-12-29T00:12:53;14.63;;;7.72;;
18206;SDS011;9229;52.354;20.886;2022-12-29T00:18:12;12.40;;;6.78;;
18206;SDS011;9229;52.354;20.886;2022-12-29T00:23:16;12.63;;;7.53;;
18206;SDS011;9229;52.354;20.886;2022-12-29T00:28:37;13.50;;;7.07;;
18206;SDS011;9229;52.354;20.886;2022-12-29T00:33:53;14.93;;;6.95;;
18206;SDS011;9229;52.354;20.886;2022-12-29T00:39:13;12.40;;;6.53;;
18206;SDS011;9229;52.354;20.886;2022-12-29T00:44:36;10.93;;;7.30;;
18206;SDS011;9229;52.354;20.886;2022-12-29T00:49:38;13.02;;;7.80;;
18206;SDS011;9229;52.354;20.886;2022-12-29T00:54:41;13.15;;;6.65;;
18206;SDS011;9229;52.354;20.886;2022-12-29T00:59:46;11.35;;;7.13;;
18206;SDS011;9229;52.354;20.886;2022-12-29T01:04:49;12.25;;;6.93;;
18206;SDS011;9229;52.354;20.886;2022-12-29T01:09:52;8.70;;;5.90;;
18206;SDS011;9229;52.354;20.886;2022-12-29T01:15:14;9.43;;;6.03;;
18206;SDS011;9229;52.354;20.886;2022-12-29T01:20:17;15.10;;;6.35;;
18206;SDS011;9229;52.354;20.886;2022-12-29T01:25:20;13.30;;;6.18;;
18206;SDS011;9229;52.354;20.886;2022-12-29T01:30:23;9.55;;;5.95;;
18206;SDS011;9229;52.354;20.886;2022-12-29T01:35:27;8.13;;;5.53;;
18206;SDS011;9229;52.354;20.886;2022-12-29T01:40:31;9.48;;;5.80;;
18206;SDS011;9229;52.354;20.886;2022-12-29T01:45:35;8.57;;;5.90;;
18206;SDS011;9229;52.354;20.886;2022-12-29T01:50:39;9.32;;;6.43;;
18206;SDS011;9229;52.354;20.886;2022-12-29T01:55:45;11.07;;;6.28;;
18206;SDS011;9229;52.354;20.886;2022-12-29T02:00:52;8.68;;;6.18;;
18206;SDS011;9229;52.354;20.886;2022-12-29T02:05:56;11.02;;;6.07;;
18206;SDS011;9229;52.354;20.886;2022-12-29T02:11:03;8.30;;;5.05;;
18206;SDS011;9229;52.354;20.886;2022-12-29T02:16:13;10.88;;;6.40;;
18206;SDS011;9229;52.354;20.886;2022-12-29T02:32:37;10.38;;;5.70;;
18206;SDS011;9229;52.354;20.886;2022-12-29T02:37:42;6.18;;;5.32;;
18206;SDS011;9229;52.354;20.886;2022-12-29T02:42:49;9.88;;;5.10;;
18206;SDS011;9229;52.354;20.886;2022-12-29T02:48:00;5.38;;;4.70;;
18206;SDS011;9229;52.354;20.886;2022-12-29T02:53:08;7.25;;;5.22;;
18206;SDS011;9229;52.354;20.886;2022-12-29T02:58:15;6.28;;;4.53;;
18206;SDS011;9229;52.354;20.886;2022-12-29T03:03:22;5.43;;;4.47;;
18206;SDS011;9229;52.354;20.886;2022-12-29T03:08:43;7.70;;;5.18;;
18206;SDS011;9229;52.354;20.886;2022-12-29T03:13:51;7.15;;;4.93;;
18206;SDS011;9229;52.354;20.886;2022-12-29T03:19:16;5.45;;;4.95;;
18206;SDS011;9229;52.354;20.886;2022-12-29T03:24:31;5.82;;;4.70;;
18206;SDS011;9229;52.354;20.886;2022-12-29T03:29:39;4.85;;;4.35;;
18206;SDS011;9229;52.354;20.886;2022-12-29T03:34:49;8.60;;;5.63;;
18206;SDS011;9229;52.354;20.886;2022-12-29T03:39:52;4.80;;;4.28;;
18206;SDS011;9229;52.354;20.886;2022-12-29T03:44:54;5.28;;;4.40;;
18206;SDS011;9229;52.354;20.886;2022-12-29T03:49:59;7.20;;;4.93;;
18206;SDS011;9229;52.354;20.886;2022-12-29T03:55:05;7.47;;;4.72;;
18206;SDS011;9229;52.354;20.886;2022-12-29T04:00:11;10.63;;;4.88;;
18206;SDS011;9229;52.354;20.886;2022-12-29T04:05:23;5.35;;;4.85;;
18206;SDS011;9229;52.354;20.886;2022-12-29T04:10:28;6.78;;;5.13;;
18206;SDS011;9229;52.354;20.886;2022-12-29T04:15:33;7.65;;;4.90;;
18206;SDS011;9229;52.354;20.886;2022-12-29T04:20:38;7.13;;;4.88;;
18206;SDS011;9229;52.354;20.886;2022-12-29T04:25:57;8.63;;;5.47;;
18206;SDS011;9229;52.354;20.886;2022-12-29T04:31:00;9.05;;;6.28;;
18206;SDS011;9229;52.354;20.886;2022-12-29T04:36:09;9.23;;;4.85;;
18206;SDS011;9229;52.354;20.886;2022-12-29T04:41:12;5.63;;;5.03;;
18206;SDS011;9229;52.354;20.886;2022-12-29T04:46:15;10.73;;;6.88;;
18206;SDS011;9229;52.354;20.886;2022-12-29T04:51:29;9.13;;;4.70;;
18206;SDS011;9229;52.354;20.886;2022-12-29T04:56:31;6.05;;;5.45;;
18206;SDS011;9229;52.354;20.886;2022-12-29T05:01:34;7.22;;;4.82;;
18206;SDS011;9229;52.354;20.886;2022-12-29T05:06:38;5.80;;;4.15;;
18206;SDS011;9229;52.354;20.886;2022-12-29T05:11:41;7.15;;;4.60;;
18206;SDS011;9229;52.354;20.886;2022-12-29T05:16:44;8.00;;;5.10;;
18206;SDS011;9229;52.354;20.886;2022-12-29T05:21:47;7.22;;;4.85;;
18206;SDS011;9229;52.354;20.886;2022-12-29T05:26:50;8.07;;;5.55;;
18206;SDS011;9229;52.354;20.886;2022-12-29T05:32:05;9.90;;;5.88;;
18206;SDS011;9229;52.354;20.886;2022-12-29T05:37:10;12.35;;;6.22;;
18206;SDS011;9229;52.354;20.886;2022-12-29T05:42:20;11.05;;;6.38;;
18206;SDS011;9229;52.354;20.886;2022-12-29T05:47:42;10.98;;;5.85;;
18206;SDS011;9229;52.354;20.886;2022-12-29T05:53:30;10.10;;;5.90;;
18206;SDS011;9229;52.354;20.886;2022-12-29T05:58:34;8.63;;;5.88;;
18206;SDS011;9229;52.354;20.886;2022-12-29T06:03:38;10.63;;;6.32;;
18206;SDS011;9229;52.354;20.886;2022-12-29T06:08:42;8.13;;;6.07;;
18206;SDS011;9229;52.354;20.886;2022-12-29T06:13:44;8.45;;;6.03;;
18206;SDS011;9229;52.354;20.886;2022-12-29T06:18:47;8.45;;;5.93;;
18206;SDS011;9229;52.354;20.886;2022-12-29T06:23:52;8.32;;;5.95;;
18206;SDS011;9229;52.354;20.886;2022-12-29T06:28:54;12.57;;;6.25;;
18206;SDS011;9229;52.354;20.886;2022-12-29T06:33:56;7.22;;;5.55;;
18206;SDS011;9229;52.354;20.886;2022-12-29T06:39:02;12.27;;;7.60;;
18206;SDS011;9229;52.354;20.886;2022-12-29T06:44:04;13.50;;;6.70;;
18206;SDS011;9229;52.354;20.886;2022-12-29T06:49:25;11.32;;;6.30;;
18206;SDS011;9229;52.354;20.886;2022-12-29T06:54:28;11.90;;;5.72;;
18206;SDS011;9229;52.354;20.886;2022-12-29T06:59:30;10.68;;;6.40;;
18206;SDS011;9229;52.354;20.886;2022-12-29T07:04:33;14.52;;;6.82;;
18206;SDS011;9229;52.354;20.886;2022-12-29T07:09:37;9.85;;;5.95;;
18206;SDS011;9229;52.354;20.886;2022-12-29T07:14:39;13.57;;;6.70;;
18206;SDS011;9229;52.354;20.886;2022-12-29T07:19:41;10.60;;;6.13;;
18206;SDS011;9229;52.354;20.886;2022-12-29T07:24:46;8.15;;;5.80;;
18206;SDS011;9229;52.354;20.886;2022-12-29T07:29:49;10.95;;;6.78;;
18206;SDS011;9229;52.354;20.886;2022-12-29T07:34:51;10.95;;;6.10;;
18206;SDS011;9229;52.354;20.886;2022-12-29T07:39:54;9.55;;;6.47;;
18206;SDS011;9229;52.354;20.886;2022-12-29T07:44:56;9.45;;;6.03;;
18206;SDS011;9229;52.354;20.886;2022-12-29T07:50:02;8.45;;;5.72;;
18206;SDS011;9229;52.354;20.886;2022-12-29T07:55:08;7.15;;;5.28;;
18206;SDS011;9229;52.354;20.886;2022-12-29T08:00:10;8.15;;;5.78;;
18206;SDS011;9229;52.354;20.886;2022-12-29T08:05:14;7.70;;;5.22;;
18206;SDS011;9229;52.354;20.886;2022-12-29T08:10:18;10.20;;;5.93;;
18206;SDS011;9229;52.354;20.886;2022-12-29T08:21:00;9.02;;;5.72;;
18206;SDS011;9229;52.354;20.886;2022-12-29T08:26:06;9.18;;;5.43;;
18206;SDS011;9229;52.354;20.886;2022-12-29T08:31:13;5.35;;;4.85;;
18206;SDS011;9229;52.354;20.886;2022-12-29T08:36:17;7.30;;;5.18;;
18206;SDS011;9229;52.354;20.886;2022-12-29T08:41:23;6.80;;;4.97;;
18206;SDS011;9229;52.354;20.886;2022-12-29T08:46:25;7.10;;;4.97;;
18206;SDS011;9229;52.354;20.886;2022-12-29T08:51:27;6.65;;;4.97;;
18206;SDS011;9229;52.354;20.886;2022-12-29T08:56:31;7.38;;;4.97;;
18206;SDS011;9229;52.354;20.886;2022-12-29T09:01:34;8.68;;;5.05;;
18206;SDS011;9229;52.354;20.886;2022-12-29T09:06:40;7.60;;;5.10;;
18206;SDS011;9229;52.354;20.886;2022-12-29T09:11:44;5.05;;;4.50;;
18206;SDS011;9229;52.354;20.886;2022-12-29T09:16:47;6.47;;;5.03;;
18206;SDS011;9229;52.354;20.886;2022-12-29T09:22:11;7.53;;;4.68;;
18206;SDS011;9229;52.354;20.886;2022-12-29T09:27:15;5.20;;;4.15;;
18206;SDS011;9229;52.354;20.886;2022-12-29T09:32:17;4.88;;;4.40;;
18206;SDS011;9229;52.354;20.886;2022-12-29T09:37:21;6.47;;;5.13;;
18206;SDS011;9229;52.354;20.886;2022-12-29T09:42:25;8.10;;;5.13;;
18206;SDS011;9229;52.354;20.886;2022-12-29T09:47:31;7.97;;;5.20;;
18206;SDS011;9229;52.354;20.886;2022-12-29T09:52:34;8.85;;;5.55;;
18206;SDS011;9229;52.354;20.886;2022-12-29T09:57:42;6.60;;;4.68;;
18206;SDS011;9229;52.354;20.886;2022-12-29T10:02:49;6.07;;;4.45;;
18206;SDS011;9229;52.354;20.886;2022-12-29T10:07:56;7.05;;;4.57;;
18206;SDS011;9229;52.354;20.886;2022-12-29T10:13:14;5.13;;;4.35;;
18206;SDS011;9229;52.354;20.886;2022-12-29T10:18:42;8.68;;;4.97;;
18206;SDS011;9229;52.354;20.886;2022-12-29T10:24:07;7.28;;;5.20;;
18206;SDS011;9229;52.354;20.886;2022-12-29T10:29:32;10.30;;;5.20;;
18206;SDS011;9229;52.354;20.886;2022-12-29T10:34:38;7.07;;;4.88;;
18206;SDS011;9229;52.354;20.886;2022-12-29T10:39:49;7.05;;;4.72;;
18206;SDS011;9229;52.354;20.886;2022-12-29T10:57:50;9.38;;;5.13;;
18206;SDS011;9229;52.354;20.886;2022-12-29T11:08:38;10.15;;;4.57;;
18206;SDS011;9229;52.354;20.886;2022-12-29T11:13:49;7.85;;;5.55;;
18206;SDS011;9229;52.354;20.886;2022-12-29T11:18:52;6.10;;;5.53;;
18206;SDS011;9229;52.354;20.886;2022-12-29T11:23:58;7.70;;;5.13;;
18206;SDS011;9229;52.354;20.886;2022-12-29T11:29:20;14.27;;;6.05;;
18206;SDS011;9229;52.354;20.886;2022-12-29T11:34:25;8.02;;;4.97;;
18206;SDS011;9229;52.354;20.886;2022-12-29T11:39:36;15.27;;;7.28;;
18206;SDS011;9229;52.354;20.886;2022-12-29T11:44:44;30.05;;;16.08;;
18206;SDS011;9229;52.354;20.886;2022-12-29T11:49:49;25.00;;;14.73;;
18206;SDS011;9229;52.354;20.886;2022-12-29T11:54:55;29.15;;;15.40;;
18206;SDS011;9229;52.354;20.886;2022-12-29T11:59:59;11.63;;;5.53;;
18206;SDS011;9229;52.354;20.886;2022-12-29T12:05:14;7.68;;;5.05;;
18206;SDS011;9229;52.354;20.886;2022-12-29T12:10:22;9.80;;;5.40;;
18206;SDS011;9229;52.354;20.886;2022-12-29T12:15:34;8.85;;;5.43;;
18206;SDS011;9229;52.354;20.886;2022-12-29T12:20:44;9.80;;;6.00;;
18206;SDS011;9229;52.354;20.886;2022-12-29T12:25:53;6.78;;;6.05;;
18206;SDS011;9229;52.354;20.886;2022-12-29T12:31:01;8.27;;;5.38;;
18206;SDS011;9229;52.354;20.886;2022-12-29T12:36:20;8.82;;;5.13;;
18206;SDS011;9229;52.354;20.886;2022-12-29T12:41:32;8.10;;;5.22;;
18206;SDS011;9229;52.354;20.886;2022-12-29T12:47:00;13.13;;;5.03;;
18206;SDS011;9229;52.354;20.886;2022-12-29T12:52:16;7.88;;;5.38;;
18206;SDS011;9229;52.354;20.886;2022-12-29T12:57:31;9.45;;;5.95;;
18206;SDS011;9229;52.354;20.886;2022-12-29T13:02:53;6.57;;;5.03;;
18206;SDS011;9229;52.354;20.886;2022-12-29T13:08:14;6.30;;;4.80;;
18206;SDS011;9229;52.354;20.886;2022-12-29T13:19:11;7.50;;;5.00;;
18206;SDS011;9229;52.354;20.886;2022-12-29T13:25:20;12.50;;;5.13;;
18206;SDS011;9229;52.354;20.886;2022-12-29T13:30:29;7.40;;;5.15;;
18206;SDS011;9229;52.354;20.886;2022-12-29T13:35:43;6.60;;;5.10;;
18206;SDS011;9229;52.354;20.886;2022-12-29T13:40:55;9.85;;;5.82;;
18206;SDS011;9229;52.354;20.886;2022-12-29T13:46:02;6.90;;;5.75;;
18206;SDS011;9229;52.354;20.886;2022-12-29T13:51:10;10.50;;;5.85;;
18206;SDS011;9229;52.354;20.886;2022-12-29T13:56:14;10.70;;;5.38;;
18206;SDS011;9229;52.354;20.886;2022-12-29T14:01:21;11.60;;;5.80;;
18206;SDS011;9229;52.354;20.886;2022-12-29T14:06:30;8.88;;;6.13;;
18206;SDS011;9229;52.354;20.886;2022-12-29T14:11:35;9.10;;;5.75;;
18206;SDS011;9229;52.354;20.886;2022-12-29T14:16:39;9.45;;;5.28;;
18206;SDS011;9229;52.354;20.886;2022-12-29T14:21:51;9.13;;;5.63;;
18206;SDS011;9229;52.354;20.886;2022-12-29T14:26:57;11.48;;;5.95;;
18206;SDS011;9229;52.354;20.886;2022-12-29T14:32:00;12.57;;;5.90;;
18206;SDS011;9229;52.354;20.886;2022-12-29T14:37:03;15.35;;;6.03;;
18206;SDS011;9229;52.354;20.886;2022-12-29T14:42:10;13.38;;;8.43;;
18206;SDS011;9229;52.354;20.886;2022-12-29T14:47:19;11.45;;;7.25;;
18206;SDS011;9229;52.354;20.886;2022-12-29T14:52:26;15.13;;;8.35;;
18206;SDS011;9229;52.354;20.886;2022-12-29T14:57:32;11.93;;;6.45;;
18206;SDS011;9229;52.354;20.886;2022-12-29T15:02:38;10.05;;;6.97;;
18206;SDS011;9229;52.354;20.886;2022-12-29T15:07:46;8.15;;;5.88;;
18206;SDS011;9229;52.354;20.886;2022-12-29T15:12:52;9.98;;;7.50;;
18206;SDS011;9229;52.354;20.886;2022-12-29T15:17:55;10.85;;;7.30;;
18206;SDS011;9229;52.354;20.886;2022-12-29T15:23:00;9.95;;;6.35;;
18206;SDS011;9229;52.354;20.886;2022-12-29T15:28:06;11.85;;;6.22;;
18206;SDS011;9229;52.354;20.886;2022-12-29T15:33:17;9.98;;;6.47;;
18206;SDS011;9229;52.354;20.886;2022-12-29T15:38:23;14.60;;;7.55;;
18206;SDS011;9229;52.354;20.886;2022-12-29T15:43:29;12.18;;;8.00;;
18206;SDS011;9229;52.354;20.886;2022-12-29T15:48:39;11.48;;;6.40;;
18206;SDS011;9229;52.354;20.886;2022-12-29T15:53:43;10.75;;;6.72;;
18206;SDS011;9229;52.354;20.886;2022-12-29T15:58:49;14.20;;;8.15;;
18206;SDS011;9229;52.354;20.886;2022-12-29T16:03:52;12.77;;;6.80;;
18206;SDS011;9229;52.354;20.886;2022-12-29T16:08:58;13.98;;;7.22;;
18206;SDS011;9229;52.354;20.886;2022-12-29T16:14:05;16.83;;;8.75;;
18206;SDS011;9229;52.354;20.886;2022-12-29T16:19:13;10.50;;;6.97;;
18206;SDS011;9229;52.354;20.886;2022-12-29T16:24:29;11.05;;;6.45;;
18206;SDS011;9229;52.354;20.886;2022-12-29T16:29:33;11.18;;;6.88;;
18206;SDS011;9229;52.354;20.886;2022-12-29T16:34:42;11.32;;;7.47;;
18206;SDS011;9229;52.354;20.886;2022-12-29T16:39:46;9.68;;;7.43;;
18206;SDS011;9229;52.354;20.886;2022-12-29T16:44:53;10.95;;;7.25;;
18206;SDS011;9229;52.354;20.886;2022-12-29T16:50:22;17.73;;;10.35;;
18206;SDS011;9229;52.354;20.886;2022-12-29T16:55:29;10.93;;;7.63;;
18206;SDS011;9229;52.354;20.886;2022-12-29T17:00:34;13.35;;;6.65;;
18206;SDS011;9229;52.354;20.886;2022-12-29T17:05:42;15.10;;;8.43;;
18206;SDS011;9229;52.354;20.886;2022-12-29T17:10:54;13.13;;;7.88;;
18206;SDS011;9229;52.354;20.886;2022-12-29T17:16:15;14.88;;;7.75;;
18206;SDS011;9229;52.354;20.886;2022-12-29T17:21:17;16.08;;;9.25;;
18206;SDS011;9229;52.354;20.886;2022-12-29T17:26:20;14.95;;;9.57;;
18206;SDS011;9229;52.354;20.886;2022-12-29T17:31:24;18.42;;;9.82;;
18206;SDS011;9229;52.354;20.886;2022-12-29T17:36:26;16.83;;;7.65;;
18206;SDS011;9229;52.354;20.886;2022-12-29T17:41:30;12.85;;;7.72;;
18206;SDS011;9229;52.354;20.886;2022-12-29T17:46:33;12.60;;;8.40;;
18206;SDS011;9229;52.354;20.886;2022-12-29T17:51:35;15.43;;;8.70;;
18206;SDS011;9229;52.354;20.886;2022-12-29T17:56:39;10.02;;;7.82;;
18206;SDS011;9229;52.354;20.886;2022-12-29T18:01:42;18.67;;;9.25;;
18206;SDS011;9229;52.354;20.886;2022-12-29T18:06:45;16.23;;;8.77;;
18206;SDS011;9229;52.354;20.886;2022-12-29T18:11:49;11.95;;;7.95;;
18206;SDS011;9229;52.354;20.886;2022-12-29T18:16:51;13.15;;;8.48;;
18206;SDS011;9229;52.354;20.886;2022-12-29T18:21:53;18.45;;;9.23;;
18206;SDS011;9229;52.354;20.886;2022-12-29T18:26:56;12.10;;;7.38;;
18206;SDS011;9229;52.354;20.886;2022-12-29T18:31:58;15.25;;;9.25;;
18206;SDS011;9229;52.354;20.886;2022-12-29T18:37:00;17.02;;;8.10;;
18206;SDS011;9229;52.354;20.886;2022-12-29T18:42:04;17.83;;;9.10;;
18206;SDS011;9229;52.354;20.886;2022-12-29T18:47:06;16.17;;;8.40;;
18206;SDS011;9229;52.354;20.886;2022-12-29T18:52:10;14.82;;;7.65;;
18206;SDS011;9229;52.354;20.886;2022-12-29T18:57:15;22.75;;;11.70;;
18206;SDS011;9229;52.354;20.886;2022-12-29T19:02:18;16.85;;;9.07;;
18206;SDS011;9229;52.354;20.886;2022-12-29T19:07:20;14.25;;;9.32;;
18206;SDS011;9229;52.354;20.886;2022-12-29T19:12:23;12.73;;;8.50;;
18206;SDS011;9229;52.354;20.886;2022-12-29T19:17:28;16.90;;;10.10;;
18206;SDS011;9229;52.354;20.886;2022-12-29T19:22:30;18.00;;;9.75;;
18206;SDS011;9229;52.354;20.886;2022-12-29T19:27:35;21.90;;;11.02;;
18206;SDS011;9229;52.354;20.886;2022-12-29T19:32:39;19.40;;;10.50;;
18206;SDS011;9229;52.354;20.886;2022-12-29T19:37:41;19.25;;;9.27;;
18206;SDS011;9229;52.354;20.886;2022-12-29T19:42:45;19.00;;;9.68;;
18206;SDS011;9229;52.354;20.886;2022-12-29T19:47:47;14.30;;;9.32;;
18206;SDS011;9229;52.354;20.886;2022-12-29T19:52:50;16.35;;;9.13;;
18206;SDS011;9229;52.354;20.886;2022-12-29T19:57:55;19.75;;;10.07;;
18206;SDS011;9229;52.354;20.886;2022-12-29T20:02:57;21.52;;;9.10;;
18206;SDS011;9229;52.354;20.886;2022-12-29T20:07:59;15.40;;;9.02;;
18206;SDS011;9229;52.354;20.886;2022-12-29T20:13:03;18.88;;;9.45;;
18206;SDS011;9229;52.354;20.886;2022-12-29T20:18:05;14.57;;;8.45;;
18206;SDS011;9229;52.354;20.886;2022-12-29T20:23:07;13.63;;;8.70;;
18206;SDS011;9229;52.354;20.886;2022-12-29T20:28:11;19.23;;;9.73;;
18206;SDS011;9229;52.354;20.886;2022-12-29T20:33:14;18.02;;;9.10;;
18206;SDS011;9229;52.354;20.886;2022-12-29T20:38:16;16.20;;;9.27;;
18206;SDS011;9229;52.354;20.886;2022-12-29T20:43:20;18.98;;;9.60;;
18206;SDS011;9229;52.354;20.886;2022-12-29T20:48:21;17.65;;;10.00;;
18206;SDS011;9229;52.354;20.886;2022-12-29T20:53:23;22.48;;;10.98;;
18206;SDS011;9229;52.354;20.886;2022-12-29T20:58:27;18.10;;;9.75;;
18206;SDS011;9229;52.354;20.886;2022-12-29T21:03:30;17.00;;;9.27;;
18206;SDS011;9229;52.354;20.886;2022-12-29T21:08:34;20.38;;;9.20;;
18206;SDS011;9229;52.354;20.886;2022-12-29T21:13:39;16.15;;;9.15;;
18206;SDS011;9229;52.354;20.886;2022-12-29T21:18:42;22.92;;;9.65;;
18206;SDS011;9229;52.354;20.886;2022-12-29T21:23:45;21.95;;;10.90;;
18206;SDS011;9229;52.354;20.886;2022-12-29T21:28:50;19.58;;;10.25;;
18206;SDS011;9229;52.354;20.886;2022-12-29T21:33:56;16.52;;;9.85;;
18206;SDS011;9229;52.354;20.886;2022-12-29T21:39:00;17.73;;;8.93;;
18206;SDS011;9229;52.354;20.886;2022-12-29T21:44:05;24.25;;;9.02;;
18206;SDS011;9229;52.354;20.886;2022-12-29T21:49:24;18.42;;;10.00;;
18206;SDS011;9229;52.354;20.886;2022-12-29T21:54:28;14.93;;;8.90;;
18206;SDS011;9229;52.354;20.886;2022-12-29T21:59:50;17.70;;;9.23;;
18206;SDS011;9229;52.354;20.886;2022-12-29T22:05:10;22.25;;;10.02;;
18206;SDS011;9229;52.354;20.886;2022-12-29T22:10:32;17.38;;;9.30;;
18206;SDS011;9229;52.354;20.886;2022-12-29T22:15:57;19.45;;;9.18;;
18206;SDS011;9229;52.354;20.886;2022-12-29T22:21:01;20.63;;;10.27;;
18206;SDS011;9229;52.354;20.886;2022-12-29T22:26:06;18.00;;;9.60;;
18206;SDS011;9229;52.354;20.886;2022-12-29T22:31:20;15.32;;;8.90;;
18206;SDS011;9229;52.354;20.886;2022-12-29T22:36:31;18.77;;;9.13;;
18206;SDS011;9229;52.354;20.886;2022-12-29T22:41:35;16.83;;;9.13;;
18206;SDS011;9229;52.354;20.886;2022-12-29T22:46:40;13.00;;;7.97;;
18206;SDS011;9229;52.354;20.886;2022-12-29T22:51:42;15.68;;;9.07;;
18206;SDS011;9229;52.354;20.886;2022-12-29T22:56:44;16.92;;;8.95;;
18206;SDS011;9229;52.354;20.886;2022-12-29T23:01:47;16.90;;;9.40;;
18206;SDS011;9229;52.354;20.886;2022-12-29T23:06:52;16.63;;;9.77;;
18206;SDS011;9229;52.354;20.886;2022-12-29T23:11:56;18.15;;;9.18;;
18206;SDS011;9229;52.354;20.886;2022-12-29T23:16:59;21.80;;;10.32;;
18206;SDS011;9229;52.354;20.886;2022-12-29T23:22:03;18.55;;;9.10;;
18206;SDS011;9229;52.354;20.886;2022-12-29T23:27:05;22.60;;;9.57;;
18206;SDS011;9229;52.354;20.886;2022-12-29T23:32:10;18.20;;;9.43;;
18206;SDS011;9229;52.354;20.886;2022-12-29T23:37:13;16.13;;;8.60;;
18206;SDS011;9229;52.354;20.886;2022-12-29T23:42:15;13.70;;;8.80;;
18206;SDS011;9229;52.354;20.886;2022-12-29T23:47:19;13.45;;;8.50;;
18206;SDS011;9229;52.354;20.886;2022-12-29T23:52:21;14.38;;;8.88;;
18206;SDS011;9229;52.354;20.886;2022-12-29T23:57:24;14.63;;;8.85;;
